Aviation Digital Data Service (ADDS)

Output produced by METARs form (0029 UTC 19 November 2018)
found at http://www.aviationweather.gov/metar/data/
 
EGPH 190020Z 00000KT 7000 BKN010 03/03 Q1033
EGPH 182350Z 15001KT 7000 BKN009 03/03 Q1033
TAF AMD EGPH 182355Z 1900/1924 08007KT 9999 SCT016 
     TEMPO 1900/1906 7000 BKN009